createdAt,value
2018-04-02T19:57:26.217Z,14.00
2018-04-02T19:59:54.445Z,14.10
2018-04-02T20:02:23.375Z,14.50
2018-04-02T20:04:51.873Z,14.40
2018-04-02T20:07:20.134Z,14.40
2018-04-02T20:09:48.378Z,14.50
2018-04-02T20:12:16.514Z,14.50
2018-04-02T20:14:45.194Z,14.20
2018-04-02T20:17:15.275Z,14.40
2018-04-02T20:19:43.940Z,14.40
2018-04-02T20:22:12.795Z,14.50
2018-04-02T20:24:42.386Z,14.60
2018-04-02T20:27:10.449Z,14.50
2018-04-02T20:29:38.398Z,14.50
2018-04-02T20:32:06.340Z,14.40
2018-04-02T20:34:34.494Z,14.30
2018-04-02T20:37:03.094Z,14.30
2018-04-02T20:39:30.940Z,14.20
2018-04-02T20:41:58.815Z,14.30
2018-04-02T20:44:26.610Z,14.10
2018-04-02T20:46:54.522Z,14.40
2018-04-02T20:49:22.370Z,14.40
2018-04-02T20:51:50.216Z,14.40
2018-04-02T20:54:18.011Z,14.40
2018-04-02T20:56:45.903Z,14.20
2018-04-02T20:59:13.772Z,13.90
2018-04-02T21:01:41.581Z,14.30
2018-04-02T21:04:09.370Z,14.30
2018-04-02T21:06:37.701Z,14.10
2018-04-02T21:09:10.657Z,13.90
2018-04-02T21:11:38.797Z,13.90
2018-04-02T21:14:06.591Z,13.90
2018-04-02T21:16:34.375Z,14.00
2018-04-02T21:19:02.160Z,13.90
2018-04-02T21:21:30.736Z,14.20
2018-04-02T21:23:59.295Z,14.20
2018-04-02T21:26:27.119Z,14.20
2018-04-02T21:28:54.871Z,14.00
2018-04-02T21:31:22.614Z,13.90
2018-04-02T21:33:51.221Z,13.80
2018-04-02T21:36:18.971Z,13.70
2018-04-02T21:38:46.783Z,13.70
2018-04-02T21:41:14.653Z,13.70
2018-04-02T21:43:42.520Z,13.60
2018-04-02T21:46:10.414Z,13.60
2018-04-02T21:48:39.076Z,13.70
2018-04-02T21:51:06.937Z,13.60
2018-04-02T21:53:34.803Z,13.70
2018-04-02T21:56:02.668Z,13.50
2018-04-02T21:58:31.355Z,13.50
2018-04-02T22:00:59.322Z,13.50
2018-04-02T22:03:27.303Z,13.60
2018-04-02T22:05:55.268Z,13.60
2018-04-02T22:08:23.226Z,13.60
2018-04-02T22:10:51.152Z,13.50
2018-04-02T22:13:19.127Z,13.50
2018-04-02T22:15:47.032Z,13.40
2018-04-02T22:18:14.896Z,13.30
2018-04-02T22:20:42.711Z,13.30
2018-04-02T22:23:10.491Z,13.30
2018-04-02T22:25:38.370Z,13.30
2018-04-02T22:28:06.119Z,13.40
2018-04-02T22:30:33.943Z,13.20
2018-04-02T22:33:02.530Z,13.20
2018-04-02T22:35:31.126Z,13.20
2018-04-02T22:37:59.052Z,13.10
2018-04-02T22:40:26.929Z,13.40
2018-04-02T22:42:55.431Z,13.30
2018-04-02T22:45:23.978Z,13.30
2018-04-02T22:47:51.758Z,13.40
2018-04-02T22:50:19.609Z,13.30
2018-04-02T22:52:48.299Z,13.40
2018-04-02T22:55:16.164Z,13.40
2018-04-02T22:57:44.027Z,13.30
2018-04-02T23:00:11.998Z,13.30
2018-04-02T23:02:39.861Z,13.10
2018-04-02T23:05:08.546Z,13.20
2018-04-02T23:07:36.342Z,13.20
2018-04-02T23:10:04.939Z,13.10
2018-04-02T23:12:32.726Z,13.00
2018-04-02T23:15:00.526Z,13.10
2018-04-02T23:17:28.497Z,13.10
2018-04-02T23:19:58.011Z,13.20
2018-04-02T23:22:38.761Z,13.10
2018-04-02T23:25:06.732Z,13.10
2018-04-02T23:27:34.596Z,13.00
2018-04-02T23:30:02.463Z,13.00
2018-04-02T23:32:30.431Z,13.00
2018-04-02T23:34:58.257Z,13.00
2018-04-02T23:37:26.083Z,12.90
2018-04-02T23:39:54.744Z,12.80
2018-04-02T23:42:22.546Z,12.80
2018-04-02T23:44:51.151Z,13.00
2018-04-02T23:47:18.926Z,12.90
2018-04-02T23:49:46.759Z,12.90
2018-04-02T23:52:15.381Z,12.70
2018-04-02T23:54:43.165Z,12.70
2018-04-02T23:57:10.980Z,12.70
2018-04-02T23:59:38.772Z,12.70
